Savage Insight — WDF9252 — position and weather

sailwx.info

Track history (hours):
 
Tides and Currents Weather Stations Pressure Air Temp Water Temp Dewpoint Dewpoint Depression Visibility Wind Speed Wind Dir Waves Ship Positions

Savage Insight

Owner: Savage Inland Marine, Gibson, LA. More information available from US FCC via Universal Licensing System and Coast Guard Vessel Documentation Center.

Last reported at 2017-Oct-22 19:05 UTC. Time now 2017-Oct-23 03:02 UTC.
Position N 29°60' W 093°55'.

Length 32 m; draft 10 m.

Type: Towing. MMSI: 367503240.

Date/timePositionNaut miles runAvg speedWind from/ knotsBaromVisibWave heightAir tempDewpointWater temp
2017-Oct-22 19:05N 29°60' W 093°55'0 0.0
2017-Oct-22 19:00N 29°60' W 093°55'58 2.2
2017-Oct-21 17:04N 29°31' W 094°53'0 7.2
2017-Oct-21 17:00N 29°31' W 094°53'3 6.9
2017-Oct-21 16:30N 29°34' W 094°56'3 6.8
2017-Oct-21 16:00N 29°37' W 094°58'3 6.9
2017-Oct-21 15:30N 29°40' W 094°59'4 6.6
2017-Oct-21 14:52N 29°44' W 095°02'4 0.1
2017-Oct-19 15:01N 29°46' W 095°05'2 4.9
2017-Oct-19 14:32N 29°44' W 095°03'1 8.6
2017-Oct-19 14:27N 29°44' W 095°03'4 7.6
2017-Oct-19 13:59N 29°42' W 094°59'4 8.8
2017-Oct-19 13:29N 29°38' W 094°58'4 8.2
2017-Oct-19 13:00N 29°34' W 094°55'69 4.6
2017-Oct-18 21:53N 30°03' W 093°43'1 3.8
2017-Oct-18 21:30N 30°04' W 093°41'2 3.7
2017-Oct-18 21:00N 30°04' W 093°39'3 5.3
2017-Oct-18 20:30N 30°04' W 093°36'3 5.4
2017-Oct-18 20:00N 30°04' W 093°33'2 4.9
2017-Oct-18 19:30N 30°04' W 093°30'3 5.5
2017-Oct-18 19:00N 30°04' W 093°27'3 5.3
2017-Oct-18 18:30N 30°04' W 093°24'2 4.8
2017-Oct-18 18:00N 30°04' W 093°21'1 1.9
2017-Oct-18 17:30N 30°05' W 093°20'1 2.5
2017-Oct-18 17:01N 30°06' W 093°20'2 3.2
2017-Oct-18 16:30N 30°04' W 093°21'0 0.1
2017-Oct-18 16:00N 30°04' W 093°20'0 0.0
2017-Oct-18 15:30N 30°04' W 093°20'2 3.4
2017-Oct-18 15:00N 30°06' W 093°20'2 2.2
2017-Oct-18 14:00N 30°08' W 093°19'0 0.0
2017-Oct-18 13:30N 30°08' W 093°19'0 0.0
2017-Oct-18 13:00N 30°08' W 093°19'0 0.0
2017-Oct-18 12:30N 30°08' W 093°19'0 0.0
2017-Oct-18 12:00N 30°08' W 093°19'0 0.0
2017-Oct-18 11:30N 30°08' W 093°19'0 0.0
2017-Oct-18 11:00N 30°08' W 093°19'0 0.0
2017-Oct-18 10:30N 30°08' W 093°19'0 0.0
2017-Oct-18 10:00N 30°08' W 093°19'0 0.0
2017-Oct-18 09:30N 30°08' W 093°19'0 0.0
2017-Oct-18 09:00N 30°08' W 093°19'0 0.0
2017-Oct-18 08:30N 30°08' W 093°19'0 0.0
2017-Oct-18 08:00N 30°08' W 093°19'0 0.0
2017-Oct-18 07:30N 30°08' W 093°19'0 0.0
2017-Oct-18 07:00N 30°08' W 093°19'0 0.0
2017-Oct-18 06:30N 30°08' W 093°19'0 0.0
2017-Oct-18 06:00N 30°08' W 093°19'0 0.0
2017-Oct-18 05:30N 30°08' W 093°19'0 0.0
2017-Oct-18 05:00N 30°08' W 093°19'0 0.0
2017-Oct-18 04:30N 30°08' W 093°19'0 0.0
2017-Oct-18 04:00N 30°08' W 093°19'0 0.0
2017-Oct-18 03:30N 30°08' W 093°19'0 0.0
2017-Oct-18 03:00N 30°08' W 093°19'0 0.0
2017-Oct-18 02:30N 30°08' W 093°19'0 0.3
2017-Oct-18 02:00N 30°08' W 093°20'0 0.0
2017-Oct-18 01:30N 30°08' W 093°20'0 0.0
2017-Oct-18 01:00N 30°08' W 093°20'0 0.0
2017-Oct-18 00:30N 30°08' W 093°20'0 0.8
2017-Oct-18 00:00N 30°08' W 093°20'3 5.6
2017-Oct-17 23:30N 30°05' W 093°20'0 0.2
2017-Oct-17 23:00N 30°05' W 093°20'0 0.8
2017-Oct-17 22:30N 30°05' W 093°20'0 0.2
2017-Oct-17 22:00N 30°05' W 093°20'2 4.5
2017-Oct-17 21:30N 30°07' W 093°20'1 2.7
2017-Oct-17 21:00N 30°08' W 093°19'0 0.0
2017-Oct-17 20:30N 30°08' W 093°19'0 0.0
2017-Oct-17 20:00N 30°08' W 093°19'0 0.0
2017-Oct-17 19:30N 30°08' W 093°19'0 0.0
2017-Oct-17 19:00N 30°08' W 093°19'0 0.0
2017-Oct-17 18:30N 30°08' W 093°19'0 0.0
2017-Oct-17 18:00N 30°08' W 093°19'0 0.0
2017-Oct-17 17:30N 30°08' W 093°19'0 0.0
2017-Oct-17 17:00N 30°08' W 093°19'0 0.0
2017-Oct-17 16:30N 30°08' W 093°19'0 0.0
2017-Oct-17 16:00N 30°08' W 093°19'0 0.0
2017-Oct-17 15:30N 30°08' W 093°19'0 0.0
2017-Oct-17 15:00N 30°08' W 093°19'0 0.0
2017-Oct-17 14:30N 30°08' W 093°19'0 0.0
2017-Oct-17 14:00N 30°08' W 093°19'0 0.0
2017-Oct-17 13:30N 30°08' W 093°19'0 0.0
2017-Oct-17 13:00N 30°08' W 093°19'0 0.0
2017-Oct-17 12:30N 30°08' W 093°19'0 0.0
2017-Oct-17 12:00N 30°08' W 093°19'0 0.0
2017-Oct-17 11:30N 30°08' W 093°19'0 0.0
2017-Oct-17 11:00N 30°08' W 093°19'0 0.0
2017-Oct-17 10:30N 30°08' W 093°19'0 0.0
2017-Oct-17 10:00N 30°08' W 093°19'0 0.0
2017-Oct-17 09:30N 30°08' W 093°19'0 0.0
2017-Oct-17 09:00N 30°08' W 093°19'0 0.4
2017-Oct-17 08:31N 30°08' W 093°20'0 0.4
2017-Oct-17 08:00N 30°08' W 093°20'3 5.2
2017-Oct-17 07:30N 30°05' W 093°20'1 1.3
2017-Oct-17 07:00N 30°05' W 093°20'0 0.1
2017-Oct-17 06:30N 30°05' W 093°20'0 0.0
2017-Oct-17 06:00N 30°05' W 093°20'0 0.0
2017-Oct-17 05:30N 30°05' W 093°20'0 0.0
2017-Oct-17 05:00N 30°05' W 093°20'0 0.0
2017-Oct-17 04:30N 30°05' W 093°20'0 0.0
2017-Oct-17 04:00N 30°05' W 093°20'0 0.0
2017-Oct-17 03:30N 30°05' W 093°20'0 0.0
2017-Oct-17 03:00N 30°05' W 093°20'0 0.0
2017-Oct-17 02:30N 30°05' W 093°20'0 0.0
2017-Oct-17 02:00N 30°05' W 093°20'0 0.0
2017-Oct-17 01:30N 30°05' W 093°20'0 0.0
2017-Oct-17 01:00N 30°05' W 093°20'0 0.0
2017-Oct-17 00:30N 30°05' W 093°20'0 0.0
2017-Oct-17 00:00N 30°05' W 093°20'0 0.0
2017-Oct-16 23:30N 30°05' W 093°20'0 0.0
2017-Oct-16 23:00N 30°05' W 093°20'0 0.0
2017-Oct-16 22:30N 30°05' W 093°20'0 0.0
2017-Oct-16 22:00N 30°05' W 093°20'0 0.0
2017-Oct-16 21:30N 30°05' W 093°20'0 0.0
2017-Oct-16 21:00N 30°05' W 093°20'1 2.8
2017-Oct-16 20:30N 30°06' W 093°19'1 1.5
2017-Oct-16 20:00N 30°06' W 093°18'0 0.0
2017-Oct-16 19:30N 30°06' W 093°18'0 0.0
2017-Oct-16 19:00N 30°06' W 093°18'0 0.0
2017-Oct-16 18:30N 30°06' W 093°18'0 0.2
2017-Oct-16 18:00N 30°06' W 093°18'2 3.1
2017-Oct-16 17:30N 30°07' W 093°20'1 2.9
2017-Oct-16 17:00N 30°08' W 093°19'1 1.9
2017-Oct-16 16:30N 30°07' W 093°20'2 3.0
2017-Oct-16 16:00N 30°06' W 093°20'1 1.8
2017-Oct-16 15:30N 30°05' W 093°20'0 0.0
2017-Oct-16 15:00N 30°05' W 093°20'0 0.6
2017-Oct-16 14:30N 30°05' W 093°20'0 0.0
2017-Oct-16 13:30N 30°05' W 093°20'0 0.0
2017-Oct-16 13:00N 30°05' W 093°20'0 0.0
2017-Oct-16 12:30N 30°05' W 093°20'0 0.0
2017-Oct-16 12:00N 30°05' W 093°20'0 0.0
2017-Oct-16 11:30N 30°05' W 093°20'0 0.0
2017-Oct-16 11:00N 30°05' W 093°20'0 0.0
2017-Oct-16 10:30N 30°05' W 093°20'0 0.0
2017-Oct-16 10:00N 30°05' W 093°20'0 0.0
2017-Oct-16 09:30N 30°05' W 093°20'0 0.0
2017-Oct-16 09:00N 30°05' W 093°20'0 0.0
2017-Oct-16 08:30N 30°05' W 093°20'0 0.0
2017-Oct-16 08:00N 30°05' W 093°20'0 0.0
2017-Oct-16 07:30N 30°05' W 093°20'0 0.0
2017-Oct-16 07:00N 30°05' W 093°20'0 0.0
2017-Oct-16 06:30N 30°05' W 093°20'0 0.0
2017-Oct-16 06:00N 30°05' W 093°20'0 0.0
2017-Oct-16 05:30N 30°05' W 093°20'0 0.0
2017-Oct-16 05:00N 30°05' W 093°20'0 0.0
2017-Oct-16 04:30N 30°05' W 093°20'0 0.0
2017-Oct-16 04:00N 30°05' W 093°20'0 0.0
2017-Oct-16 03:31N 30°05' W 093°20'0 0.0
2017-Oct-16 03:00N 30°05' W 093°20'0 0.0
2017-Oct-16 02:30N 30°05' W 093°20'0 0.0
2017-Oct-16 02:00N 30°05' W 093°20'0 0.0
2017-Oct-16 01:30N 30°05' W 093°20'0 0.0
2017-Oct-16 01:00N 30°05' W 093°20'0 0.0
2017-Oct-16 00:30N 30°05' W 093°20'0 0.0
2017-Oct-16 00:00N 30°05' W 093°20'0 0.0
2017-Oct-15 23:30N 30°05' W 093°20'0 0.0
2017-Oct-15 23:00N 30°05' W 093°20'0 0.0
2017-Oct-15 22:30N 30°05' W 093°20'0 0.0
2017-Oct-15 22:00N 30°05' W 093°20'0 0.0
2017-Oct-15 21:30N 30°05' W 093°20'0 0.0
2017-Oct-15 21:00N 30°05' W 093°20'0 0.0
2017-Oct-15 20:30N 30°05' W 093°20'0 0.0
2017-Oct-15 20:00N 30°05' W 093°20'0 0.0
2017-Oct-15 19:30N 30°05' W 093°20'0 0.0
2017-Oct-15 19:00N 30°05' W 093°20'0 0.0
2017-Oct-15 18:30N 30°05' W 093°20'0 0.0
2017-Oct-15 18:00N 30°05' W 093°20'0 0.0
2017-Oct-15 17:30N 30°05' W 093°20'0 0.0
2017-Oct-15 17:00N 30°05' W 093°20'0 0.0
2017-Oct-15 16:30N 30°05' W 093°20'0 0.0
2017-Oct-15 16:00N 30°05' W 093°20'0 0.0
2017-Oct-15 15:30N 30°05' W 093°20'0 0.0
2017-Oct-15 15:00N 30°05' W 093°20'0 0.0
2017-Oct-15 14:00N 30°05' W 093°20'0 0.0
2017-Oct-15 13:30N 30°05' W 093°20'0 0.0
2017-Oct-15 13:00N 30°05' W 093°20'0 0.0
2017-Oct-15 12:30N 30°05' W 093°20'0 0.0
2017-Oct-15 12:00N 30°05' W 093°20'0 0.0
2017-Oct-15 11:30N 30°05' W 093°20'0 0.0
2017-Oct-15 11:00N 30°05' W 093°20'0 0.0
2017-Oct-15 10:30N 30°05' W 093°20'0 0.0
2017-Oct-15 10:00N 30°05' W 093°20'0 0.0
2017-Oct-15 09:30N 30°05' W 093°20'0 0.0
2017-Oct-15 09:00N 30°05' W 093°20'0 0.0
2017-Oct-15 08:30N 30°05' W 093°20'0 0.0
2017-Oct-15 08:00N 30°05' W 093°20'0 0.0
2017-Oct-15 07:30N 30°05' W 093°20'0 0.0
2017-Oct-15 07:00N 30°05' W 093°20'0 0.0
2017-Oct-15 06:30N 30°05' W 093°20'0 0.0
2017-Oct-15 06:00N 30°05' W 093°20'0 0.0
2017-Oct-15 05:30N 30°05' W 093°20'0 0.0
2017-Oct-15 05:00N 30°05' W 093°20'0 0.0
2017-Oct-15 04:30N 30°05' W 093°20'0 0.0
2017-Oct-15 04:00N 30°05' W 093°20'0 0.0
2017-Oct-15 03:30N 30°05' W 093°20'0 0.0
2017-Oct-15 03:00N 30°05' W 093°20'0 0.0
2017-Oct-15 02:30N 30°05' W 093°20'0 0.0
2017-Oct-15 02:00N 30°05' W 093°20'0 0.0
2017-Oct-15 01:30N 30°05' W 093°20'0 0.0
2017-Oct-15 01:00N 30°05' W 093°20'0 0.0
2017-Oct-15 00:30N 30°05' W 093°20'0 0.0
2017-Oct-15 00:00N 30°05' W 093°20'0 0.0
2017-Oct-14 23:30N 30°05' W 093°20'0 0.0
2017-Oct-14 23:00N 30°05' W 093°20'0 0.0
2017-Oct-14 22:30N 30°05' W 093°20'0 0.0
2017-Oct-14 22:00N 30°05' W 093°20'0 0.0
2017-Oct-14 21:30N 30°05' W 093°20'0 0.0
2017-Oct-14 21:00N 30°05' W 093°20'0 0.0
2017-Oct-14 20:30N 30°05' W 093°20'0 0.1
2017-Oct-14 20:01N 30°05' W 093°20'0 0.4
2017-Oct-14 19:30N 30°05' W 093°20'1 1.3
2017-Oct-14 19:00N 30°06' W 093°20'1 1.1
2017-Oct-14 18:30N 30°05' W 093°20'2 3.7
2017-Oct-14 18:00N 30°04' W 093°21'2 3.5
2017-Oct-14 17:30N 30°04' W 093°23'3 5.4
2017-Oct-14 17:00N 30°04' W 093°26'4 5.4
2017-Oct-14 16:16N 30°04' W 093°31'1 5.3
2017-Oct-14 16:00N 30°04' W 093°33'2 4.9
2017-Oct-14 15:30N 30°04' W 093°35'3 5.0
2017-Oct-14 14:56N 30°04' W 093°39'2 4.2
2017-Oct-14 14:30N 30°04' W 093°41'2 4.0
2017-Oct-14 14:00N 30°03' W 093°43'2 4.8
2017-Oct-14 13:30N 30°01' W 093°45'7 2.2
2017-Oct-14 10:21N 29°58' W 093°52'1 1.2
2017-Oct-14 09:42N 29°58' W 093°51'9 3.5
2017-Oct-14 07:12N 29°51' W 093°57'2 7.0
2017-Oct-14 06:54N 29°49' W 093°58'2 4.7
2017-Oct-14 06:30N 29°49' W 093°60'49 3.9
2017-Oct-13 17:46N 29°29' W 094°51'3 8.9
2017-Oct-13 17:25N 29°31' W 094°53'4 8.9
2017-Oct-13 17:00N 29°34' W 094°56'4 8.7
2017-Oct-13 16:30N 29°38' W 094°58'4 8.6
2017-Oct-13 16:00N 29°42' W 095°01'4 6.6
2017-Oct-13 15:21N 29°45' W 095°04'3 0.5
2017-Oct-13 08:50N 29°44' W 095°08'0 0.0
2017-Oct-13 08:30N 29°44' W 095°08'0 0.0
2017-Oct-13 07:58N 29°44' W 095°08'0 0.0
2017-Oct-13 00:22N 29°44' W 095°08'  
Track history (hours):
 
Tides and Currents Weather Stations Pressure Air Temp Water Temp Dewpoint Dewpoint Depression Visibility Wind Speed Wind Dir Waves Ship Positions

Savage Insight

Owner: Savage Inland Marine, Gibson, LA. More information available from US FCC via Universal Licensing System and Coast Guard Vessel Documentation Center.

Last reported at 2017-Oct-22 19:05 UTC. Time now 2017-Oct-23 03:02 UTC.
Position N 29°60' W 093°55'.

Length 32 m; draft 10 m.

Type: Towing. MMSI: 367503240.

Date/timePositionNaut miles runAvg speedWind from/ knotsBaromVisibWave heightAir tempDewpointWater temp
2017-Oct-22 19:05N 29°60' W 093°55'0 0.0
2017-Oct-22 19:00N 29°60' W 093°55'58 2.2
2017-Oct-21 17:04N 29°31' W 094°53'0 7.2
2017-Oct-21 17:00N 29°31' W 094°53'3 6.9
2017-Oct-21 16:30N 29°34' W 094°56'3 6.8
2017-Oct-21 16:00N 29°37' W 094°58'3 6.9
2017-Oct-21 15:30N 29°40' W 094°59'4 6.6
2017-Oct-21 14:52N 29°44' W 095°02'4 0.1
2017-Oct-19 15:01N 29°46' W 095°05'2 4.9
2017-Oct-19 14:32N 29°44' W 095°03'1 8.6
2017-Oct-19 14:27N 29°44' W 095°03'4 7.6
2017-Oct-19 13:59N 29°42' W 094°59'4 8.8
2017-Oct-19 13:29N 29°38' W 094°58'4 8.2
2017-Oct-19 13:00N 29°34' W 094°55'69 4.6
2017-Oct-18 21:53N 30°03' W 093°43'1 3.8
2017-Oct-18 21:30N 30°04' W 093°41'2 3.7
2017-Oct-18 21:00N 30°04' W 093°39'3 5.3
2017-Oct-18 20:30N 30°04' W 093°36'3 5.4
2017-Oct-18 20:00N 30°04' W 093°33'2 4.9
2017-Oct-18 19:30N 30°04' W 093°30'3 5.5
2017-Oct-18 19:00N 30°04' W 093°27'3 5.3
2017-Oct-18 18:30N 30°04' W 093°24'2 4.8
2017-Oct-18 18:00N 30°04' W 093°21'1 1.9
2017-Oct-18 17:30N 30°05' W 093°20'1 2.5
2017-Oct-18 17:01N 30°06' W 093°20'2 3.2
2017-Oct-18 16:30N 30°04' W 093°21'0 0.1
2017-Oct-18 16:00N 30°04' W 093°20'0 0.0
2017-Oct-18 15:30N 30°04' W 093°20'2 3.4
2017-Oct-18 15:00N 30°06' W 093°20'2 2.2
2017-Oct-18 14:00N 30°08' W 093°19'0 0.0
2017-Oct-18 13:30N 30°08' W 093°19'0 0.0
2017-Oct-18 13:00N 30°08' W 093°19'0 0.0
2017-Oct-18 12:30N 30°08' W 093°19'0 0.0
2017-Oct-18 12:00N 30°08' W 093°19'0 0.0
2017-Oct-18 11:30N 30°08' W 093°19'0 0.0
2017-Oct-18 11:00N 30°08' W 093°19'0 0.0
2017-Oct-18 10:30N 30°08' W 093°19'0 0.0
2017-Oct-18 10:00N 30°08' W 093°19'0 0.0
2017-Oct-18 09:30N 30°08' W 093°19'0 0.0
2017-Oct-18 09:00N 30°08' W 093°19'0 0.0
2017-Oct-18 08:30N 30°08' W 093°19'0 0.0
2017-Oct-18 08:00N 30°08' W 093°19'0 0.0
2017-Oct-18 07:30N 30°08' W 093°19'0 0.0
2017-Oct-18 07:00N 30°08' W 093°19'0 0.0
2017-Oct-18 06:30N 30°08' W 093°19'0 0.0
2017-Oct-18 06:00N 30°08' W 093°19'0 0.0
2017-Oct-18 05:30N 30°08' W 093°19'0 0.0
2017-Oct-18 05:00N 30°08' W 093°19'0 0.0
2017-Oct-18 04:30N 30°08' W 093°19'0 0.0
2017-Oct-18 04:00N 30°08' W 093°19'0 0.0
2017-Oct-18 03:30N 30°08' W 093°19'0 0.0
2017-Oct-18 03:00N 30°08' W 093°19'0 0.0
2017-Oct-18 02:30N 30°08' W 093°19'0 0.3
2017-Oct-18 02:00N 30°08' W 093°20'0 0.0
2017-Oct-18 01:30N 30°08' W 093°20'0 0.0
2017-Oct-18 01:00N 30°08' W 093°20'0 0.0
2017-Oct-18 00:30N 30°08' W 093°20'0 0.8
2017-Oct-18 00:00N 30°08' W 093°20'3 5.6
2017-Oct-17 23:30N 30°05' W 093°20'0 0.2
2017-Oct-17 23:00N 30°05' W 093°20'0 0.8
2017-Oct-17 22:30N 30°05' W 093°20'0 0.2
2017-Oct-17 22:00N 30°05' W 093°20'2 4.5
2017-Oct-17 21:30N 30°07' W 093°20'1 2.7
2017-Oct-17 21:00N 30°08' W 093°19'0 0.0
2017-Oct-17 20:30N 30°08' W 093°19'0 0.0
2017-Oct-17 20:00N 30°08' W 093°19'0 0.0
2017-Oct-17 19:30N 30°08' W 093°19'0 0.0
2017-Oct-17 19:00N 30°08' W 093°19'0 0.0
2017-Oct-17 18:30N 30°08' W 093°19'0 0.0
2017-Oct-17 18:00N 30°08' W 093°19'0 0.0
2017-Oct-17 17:30N 30°08' W 093°19'0 0.0
2017-Oct-17 17:00N 30°08' W 093°19'0 0.0
2017-Oct-17 16:30N 30°08' W 093°19'0 0.0
2017-Oct-17 16:00N 30°08' W 093°19'0 0.0
2017-Oct-17 15:30N 30°08' W 093°19'0 0.0
2017-Oct-17 15:00N 30°08' W 093°19'0 0.0
2017-Oct-17 14:30N 30°08' W 093°19'0 0.0
2017-Oct-17 14:00N 30°08' W 093°19'0 0.0
2017-Oct-17 13:30N 30°08' W 093°19'0 0.0
2017-Oct-17 13:00N 30°08' W 093°19'0 0.0
2017-Oct-17 12:30N 30°08' W 093°19'0 0.0
2017-Oct-17 12:00N 30°08' W 093°19'0 0.0
2017-Oct-17 11:30N 30°08' W 093°19'0 0.0
2017-Oct-17 11:00N 30°08' W 093°19'0 0.0
2017-Oct-17 10:30N 30°08' W 093°19'0 0.0
2017-Oct-17 10:00N 30°08' W 093°19'0 0.0
2017-Oct-17 09:30N 30°08' W 093°19'0 0.0
2017-Oct-17 09:00N 30°08' W 093°19'0 0.4
2017-Oct-17 08:31N 30°08' W 093°20'0 0.4
2017-Oct-17 08:00N 30°08' W 093°20'3 5.2
2017-Oct-17 07:30N 30°05' W 093°20'1 1.3
2017-Oct-17 07:00N 30°05' W 093°20'0 0.1
2017-Oct-17 06:30N 30°05' W 093°20'0 0.0
2017-Oct-17 06:00N 30°05' W 093°20'0 0.0
2017-Oct-17 05:30N 30°05' W 093°20'0 0.0
2017-Oct-17 05:00N 30°05' W 093°20'0 0.0
2017-Oct-17 04:30N 30°05' W 093°20'0 0.0
2017-Oct-17 04:00N 30°05' W 093°20'0 0.0
2017-Oct-17 03:30N 30°05' W 093°20'0 0.0
2017-Oct-17 03:00N 30°05' W 093°20'0 0.0
2017-Oct-17 02:30N 30°05' W 093°20'0 0.0
2017-Oct-17 02:00N 30°05' W 093°20'0 0.0
2017-Oct-17 01:30N 30°05' W 093°20'0 0.0
2017-Oct-17 01:00N 30°05' W 093°20'0 0.0
2017-Oct-17 00:30N 30°05' W 093°20'0 0.0
2017-Oct-17 00:00N 30°05' W 093°20'0 0.0
2017-Oct-16 23:30N 30°05' W 093°20'0 0.0
2017-Oct-16 23:00N 30°05' W 093°20'0 0.0
2017-Oct-16 22:30N 30°05' W 093°20'0 0.0
2017-Oct-16 22:00N 30°05' W 093°20'0 0.0
2017-Oct-16 21:30N 30°05' W 093°20'0 0.0
2017-Oct-16 21:00N 30°05' W 093°20'1 2.8
2017-Oct-16 20:30N 30°06' W 093°19'1 1.5
2017-Oct-16 20:00N 30°06' W 093°18'0 0.0
2017-Oct-16 19:30N 30°06' W 093°18'0 0.0
2017-Oct-16 19:00N 30°06' W 093°18'0 0.0
2017-Oct-16 18:30N 30°06' W 093°18'0 0.2
2017-Oct-16 18:00N 30°06' W 093°18'2 3.1
2017-Oct-16 17:30N 30°07' W 093°20'1 2.9
2017-Oct-16 17:00N 30°08' W 093°19'1 1.9
2017-Oct-16 16:30N 30°07' W 093°20'2 3.0
2017-Oct-16 16:00N 30°06' W 093°20'1 1.8
2017-Oct-16 15:30N 30°05' W 093°20'0 0.0
2017-Oct-16 15:00N 30°05' W 093°20'0 0.6
2017-Oct-16 14:30N 30°05' W 093°20'0 0.0
2017-Oct-16 13:30N 30°05' W 093°20'0 0.0
2017-Oct-16 13:00N 30°05' W 093°20'0 0.0
2017-Oct-16 12:30N 30°05' W 093°20'0 0.0
2017-Oct-16 12:00N 30°05' W 093°20'0 0.0
2017-Oct-16 11:30N 30°05' W 093°20'0 0.0
2017-Oct-16 11:00N 30°05' W 093°20'0 0.0
2017-Oct-16 10:30N 30°05' W 093°20'0 0.0
2017-Oct-16 10:00N 30°05' W 093°20'0 0.0
2017-Oct-16 09:30N 30°05' W 093°20'0 0.0
2017-Oct-16 09:00N 30°05' W 093°20'0 0.0
2017-Oct-16 08:30N 30°05' W 093°20'0 0.0
2017-Oct-16 08:00N 30°05' W 093°20'0 0.0
2017-Oct-16 07:30N 30°05' W 093°20'0 0.0
2017-Oct-16 07:00N 30°05' W 093°20'0 0.0
2017-Oct-16 06:30N 30°05' W 093°20'0 0.0
2017-Oct-16 06:00N 30°05' W 093°20'0 0.0
2017-Oct-16 05:30N 30°05' W 093°20'0 0.0
2017-Oct-16 05:00N 30°05' W 093°20'0 0.0
2017-Oct-16 04:30N 30°05' W 093°20'0 0.0
2017-Oct-16 04:00N 30°05' W 093°20'0 0.0
2017-Oct-16 03:31N 30°05' W 093°20'0 0.0
2017-Oct-16 03:00N 30°05' W 093°20'0 0.0
2017-Oct-16 02:30N 30°05' W 093°20'0 0.0
2017-Oct-16 02:00N 30°05' W 093°20'0 0.0
2017-Oct-16 01:30N 30°05' W 093°20'0 0.0
2017-Oct-16 01:00N 30°05' W 093°20'0 0.0
2017-Oct-16 00:30N 30°05' W 093°20'0 0.0
2017-Oct-16 00:00N 30°05' W 093°20'0 0.0
2017-Oct-15 23:30N 30°05' W 093°20'0 0.0
2017-Oct-15 23:00N 30°05' W 093°20'0 0.0
2017-Oct-15 22:30N 30°05' W 093°20'0 0.0
2017-Oct-15 22:00N 30°05' W 093°20'0 0.0
2017-Oct-15 21:30N 30°05' W 093°20'0 0.0
2017-Oct-15 21:00N 30°05' W 093°20'0 0.0
2017-Oct-15 20:30N 30°05' W 093°20'0 0.0
2017-Oct-15 20:00N 30°05' W 093°20'0 0.0
2017-Oct-15 19:30N 30°05' W 093°20'0 0.0
2017-Oct-15 19:00N 30°05' W 093°20'0 0.0
2017-Oct-15 18:30N 30°05' W 093°20'0 0.0
2017-Oct-15 18:00N 30°05' W 093°20'0 0.0
2017-Oct-15 17:30N 30°05' W 093°20'0 0.0
2017-Oct-15 17:00N 30°05' W 093°20'0 0.0
2017-Oct-15 16:30N 30°05' W 093°20'0 0.0
2017-Oct-15 16:00N 30°05' W 093°20'0 0.0
2017-Oct-15 15:30N 30°05' W 093°20'0 0.0
2017-Oct-15 15:00N 30°05' W 093°20'0 0.0
2017-Oct-15 14:00N 30°05' W 093°20'0 0.0
2017-Oct-15 13:30N 30°05' W 093°20'0 0.0
2017-Oct-15 13:00N 30°05' W 093°20'0 0.0
2017-Oct-15 12:30N 30°05' W 093°20'0 0.0
2017-Oct-15 12:00N 30°05' W 093°20'0 0.0
2017-Oct-15 11:30N 30°05' W 093°20'0 0.0
2017-Oct-15 11:00N 30°05' W 093°20'0 0.0
2017-Oct-15 10:30N 30°05' W 093°20'0 0.0
2017-Oct-15 10:00N 30°05' W 093°20'0 0.0
2017-Oct-15 09:30N 30°05' W 093°20'0 0.0
2017-Oct-15 09:00N 30°05' W 093°20'0 0.0
2017-Oct-15 08:30N 30°05' W 093°20'0 0.0
2017-Oct-15 08:00N 30°05' W 093°20'0 0.0
2017-Oct-15 07:30N 30°05' W 093°20'0 0.0
2017-Oct-15 07:00N 30°05' W 093°20'0 0.0
2017-Oct-15 06:30N 30°05' W 093°20'0 0.0
2017-Oct-15 06:00N 30°05' W 093°20'0 0.0
2017-Oct-15 05:30N 30°05' W 093°20'0 0.0
2017-Oct-15 05:00N 30°05' W 093°20'0 0.0
2017-Oct-15 04:30N 30°05' W 093°20'0 0.0
2017-Oct-15 04:00N 30°05' W 093°20'0 0.0
2017-Oct-15 03:30N 30°05' W 093°20'0 0.0
2017-Oct-15 03:00N 30°05' W 093°20'0 0.0
2017-Oct-15 02:30N 30°05' W 093°20'0 0.0
2017-Oct-15 02:00N 30°05' W 093°20'0 0.0
2017-Oct-15 01:30N 30°05' W 093°20'0 0.0
2017-Oct-15 01:00N 30°05' W 093°20'0 0.0
2017-Oct-15 00:30N 30°05' W 093°20'0 0.0
2017-Oct-15 00:00N 30°05' W 093°20'0 0.0
2017-Oct-14 23:30N 30°05' W 093°20'0 0.0
2017-Oct-14 23:00N 30°05' W 093°20'0 0.0
2017-Oct-14 22:30N 30°05' W 093°20'0 0.0
2017-Oct-14 22:00N 30°05' W 093°20'0 0.0
2017-Oct-14 21:30N 30°05' W 093°20'0 0.0
2017-Oct-14 21:00N 30°05' W 093°20'0 0.0
2017-Oct-14 20:30N 30°05' W 093°20'0 0.1
2017-Oct-14 20:01N 30°05' W 093°20'0 0.4
2017-Oct-14 19:30N 30°05' W 093°20'1 1.3
2017-Oct-14 19:00N 30°06' W 093°20'1 1.1
2017-Oct-14 18:30N 30°05' W 093°20'2 3.7
2017-Oct-14 18:00N 30°04' W 093°21'2 3.5
2017-Oct-14 17:30N 30°04' W 093°23'3 5.4
2017-Oct-14 17:00N 30°04' W 093°26'4 5.4
2017-Oct-14 16:16N 30°04' W 093°31'1 5.3
2017-Oct-14 16:00N 30°04' W 093°33'2 4.9
2017-Oct-14 15:30N 30°04' W 093°35'3 5.0
2017-Oct-14 14:56N 30°04' W 093°39'2 4.2
2017-Oct-14 14:30N 30°04' W 093°41'2 4.0
2017-Oct-14 14:00N 30°03' W 093°43'2 4.8
2017-Oct-14 13:30N 30°01' W 093°45'7 2.2
2017-Oct-14 10:21N 29°58' W 093°52'1 1.2
2017-Oct-14 09:42N 29°58' W 093°51'9 3.5
2017-Oct-14 07:12N 29°51' W 093°57'2 7.0
2017-Oct-14 06:54N 29°49' W 093°58'2 4.7
2017-Oct-14 06:30N 29°49' W 093°60'49 3.9
2017-Oct-13 17:46N 29°29' W 094°51'3 8.9
2017-Oct-13 17:25N 29°31' W 094°53'4 8.9
2017-Oct-13 17:00N 29°34' W 094°56'4 8.7
2017-Oct-13 16:30N 29°38' W 094°58'4 8.6
2017-Oct-13 16:00N 29°42' W 095°01'4 6.6
2017-Oct-13 15:21N 29°45' W 095°04'3 0.5
2017-Oct-13 08:50N 29°44' W 095°08'0 0.0
2017-Oct-13 08:30N 29°44' W 095°08'0 0.0
2017-Oct-13 07:58N 29°44' W 095°08'0 0.0
2017-Oct-13 00:22N 29°44' W 095°08'  

Dump ship's entire track history